Weather at Montreal / Pierre Elliott Trudeau International Airport

Public forecast

Using degrees Celsius for public forecast. Weather courtesy of forecast.io.

Current aviation weather report (METAR) for Montreal / Pierre Elliott Trudeau International Airport

2022/11/30 11:00 (retrieved 33 minutes ago)

CYUL 301100Z 13011G17KT 15SM FEW160 BKN240 02/M03 A2994 RMK AC1CI4 SLP144

Aviation forecast (TAF) for Montreal / Pierre Elliott Trudeau International Airport

2022/11/30 09:42 (retrieved 2 hours ago)

TAF TAF CYUL 300840Z 3009/0106 13012KT P6SM SCT040 BKN240 BECMG 3011/3013 14015G25KT FM301500 15020G30KT P6SM -RA OVC020 FM301800 16020G30KT 5SM -RA BR OVC012 BECMG 3021/3023 24022G40KT FM010000 24025G40KT P6SM -SHRA BKN020 OVC060 FM010300 24020G35KT P6SM BKN030 RMK NXT FCST BY 301200Z